sensor_id;sensor_type;location;lat;lon;timestamp;temperature;humidity
64833;HTU21D;51290;45.060;38.948;2023-02-26T00:00:19;9.46;47.15
64833;HTU21D;51290;45.060;38.948;2023-02-26T00:02:46;9.66;46.93
64833;HTU21D;51290;45.060;38.948;2023-02-26T00:05:15;9.93;46.80
64833;HTU21D;51290;45.060;38.948;2023-02-26T00:07:41;10.21;46.51
64833;HTU21D;51290;45.060;38.948;2023-02-26T00:10:10;10.48;45.96
64833;HTU21D;51290;45.060;38.948;2023-02-26T00:12:37;10.73;45.47
64833;HTU21D;51290;45.060;38.948;2023-02-26T00:15:04;10.96;45.27
64833;HTU21D;51290;45.060;38.948;2023-02-26T00:20:06;11.36;44.80
64833;HTU21D;51290;45.060;38.948;2023-02-26T00:22:33;11.52;44.49
64833;HTU21D;51290;45.060;38.948;2023-02-26T00:24:59;11.66;44.17
64833;HTU21D;51290;45.060;38.948;2023-02-26T00:27:25;11.78;43.80
64833;HTU21D;51290;45.060;38.948;2023-02-26T00:29:52;11.90;43.29
64833;HTU21D;51290;45.060;38.948;2023-02-26T00:32:18;12.01;43.31
64833;HTU21D;51290;45.060;38.948;2023-02-26T00:34:45;12.12;42.82
64833;HTU21D;51290;45.060;38.948;2023-02-26T00:42:55;12.37;42.07
64833;HTU21D;51290;45.060;38.948;2023-02-26T00:45:22;12.43;41.84
64833;HTU21D;51290;45.060;38.948;2023-02-26T00:47:49;12.51;41.46
64833;HTU21D;51290;45.060;38.948;2023-02-26T00:50:21;12.53;41.13
64833;HTU21D;51290;45.060;38.948;2023-02-26T00:53:16;12.62;40.86
64833;HTU21D;51290;45.060;38.948;2023-02-26T00:55:44;12.69;40.35
64833;HTU21D;51290;45.060;38.948;2023-02-26T00:58:10;12.74;40.51
64833;HTU21D;51290;45.060;38.948;2023-02-26T01:00:36;12.78;40.21
64833;HTU21D;51290;45.060;38.948;2023-02-26T01:03:03;12.82;40.14
64833;HTU21D;51290;45.060;38.948;2023-02-26T01:05:29;12.87;40.21
64833;HTU21D;51290;45.060;38.948;2023-02-26T01:08:08;12.90;40.36
64833;HTU21D;51290;45.060;38.948;2023-02-26T01:10:36;12.92;40.14
64833;HTU21D;51290;45.060;38.948;2023-02-26T01:13:02;12.91;40.13
64833;HTU21D;51290;45.060;38.948;2023-02-26T01:15:28;12.91;40.17
64833;HTU21D;51290;45.060;38.948;2023-02-26T01:18:03;12.91;39.78
64833;HTU21D;51290;45.060;38.948;2023-02-26T01:20:37;12.94;39.47
64833;HTU21D;51290;45.060;38.948;2023-02-26T01:23:10;13.01;38.77
64833;HTU21D;51290;45.060;38.948;2023-02-26T01:25:49;13.09;38.71
64833;HTU21D;51290;45.060;38.948;2023-02-26T01:28:16;13.17;38.80
64833;HTU21D;51290;45.060;38.948;2023-02-26T01:30:42;13.23;38.34
64833;HTU21D;51290;45.060;38.948;2023-02-26T01:33:33;13.30;37.93
64833;HTU21D;51290;45.060;38.948;2023-02-26T01:36:06;13.32;38.24
64833;HTU21D;51290;45.060;38.948;2023-02-26T01:41:42;13.36;37.60
64833;HTU21D;51290;45.060;38.948;2023-02-26T01:49:42;13.40;36.92
64833;HTU21D;51290;45.060;38.948;2023-02-26T01:54:59;13.38;36.82
64833;HTU21D;51290;45.060;38.948;2023-02-26T01:57:25;13.39;36.73
64833;HTU21D;51290;45.060;38.948;2023-02-26T01:59:51;13.39;36.13
64833;HTU21D;51290;45.060;38.948;2023-02-26T02:02:23;13.40;36.30
64833;HTU21D;51290;45.060;38.948;2023-02-26T02:04:50;13.39;36.34
64833;HTU21D;51290;45.060;38.948;2023-02-26T02:07:17;13.39;36.30
64833;HTU21D;51290;45.060;38.948;2023-02-26T02:09:45;13.41;36.18
64833;HTU21D;51290;45.060;38.948;2023-02-26T02:23:38;13.67;35.18
64833;HTU21D;51290;45.060;38.948;2023-02-26T02:32:11;13.92;34.88
64833;HTU21D;51290;45.060;38.948;2023-02-26T02:37:30;14.05;34.82
64833;HTU21D;51290;45.060;38.948;2023-02-26T02:40:08;14.08;34.72
64833;HTU21D;51290;45.060;38.948;2023-02-26T02:43:00;14.08;34.62
64833;HTU21D;51290;45.060;38.948;2023-02-26T02:46:38;14.08;34.39
64833;HTU21D;51290;45.060;38.948;2023-02-26T02:51:17;14.15;33.99
64833;HTU21D;51290;45.060;38.948;2023-02-26T02:54:10;14.18;33.92
64833;HTU21D;51290;45.060;38.948;2023-02-26T02:56:44;14.23;33.35
64833;HTU21D;51290;45.060;38.948;2023-02-26T02:59:22;14.27;33.43
64833;HTU21D;51290;45.060;38.948;2023-02-26T03:01:56;14.29;32.62
64833;HTU21D;51290;45.060;38.948;2023-02-26T03:04:24;14.33;32.93
64833;HTU21D;51290;45.060;38.948;2023-02-26T03:06:50;14.33;33.09
64833;HTU21D;51290;45.060;38.948;2023-02-26T03:09:17;14.33;33.10
64833;HTU21D;51290;45.060;38.948;2023-02-26T03:11:43;14.32;32.99
64833;HTU21D;51290;45.060;38.948;2023-02-26T03:14:10;14.29;33.08
64833;HTU21D;51290;45.060;38.948;2023-02-26T03:16:44;14.28;33.08
64833;HTU21D;51290;45.060;38.948;2023-02-26T03:25:04;14.20;32.74
64833;HTU21D;51290;45.060;38.948;2023-02-26T03:27:48;14.18;32.91
64833;HTU21D;51290;45.060;38.948;2023-02-26T03:30:50;14.18;32.82
64833;HTU21D;51290;45.060;38.948;2023-02-26T03:33:46;14.18;32.79
64833;HTU21D;51290;45.060;38.948;2023-02-26T03:36:35;14.17;32.71
64833;HTU21D;51290;45.060;38.948;2023-02-26T03:39:27;14.12;32.64
64833;HTU21D;51290;45.060;38.948;2023-02-26T03:42:05;14.09;32.60
64833;HTU21D;51290;45.060;38.948;2023-02-26T03:44:52;14.07;32.89
64833;HTU21D;51290;45.060;38.948;2023-02-26T03:47:20;14.05;32.76
64833;HTU21D;51290;45.060;38.948;2023-02-26T03:52:21;13.97;32.89
64833;HTU21D;51290;45.060;38.948;2023-02-26T03:55:05;13.92;33.05
64833;HTU21D;51290;45.060;38.948;2023-02-26T03:57:52;13.89;33.28
64833;HTU21D;51290;45.060;38.948;2023-02-26T04:00:26;13.85;33.09
64833;HTU21D;51290;45.060;38.948;2023-02-26T04:05:40;13.83;33.08
64833;HTU21D;51290;45.060;38.948;2023-02-26T04:08:08;13.82;33.09
64833;HTU21D;51290;45.060;38.948;2023-02-26T04:10:50;13.81;33.06
64833;HTU21D;51290;45.060;38.948;2023-02-26T04:13:18;13.81;32.93
64833;HTU21D;51290;45.060;38.948;2023-02-26T04:15:44;13.83;32.97
64833;HTU21D;51290;45.060;38.948;2023-02-26T04:18:10;13.88;33.00
64833;HTU21D;51290;45.060;38.948;2023-02-26T04:20:36;13.91;33.00
64833;HTU21D;51290;45.060;38.948;2023-02-26T04:23:02;13.92;32.88
64833;HTU21D;51290;45.060;38.948;2023-02-26T04:25:28;13.92;32.72
64833;HTU21D;51290;45.060;38.948;2023-02-26T04:28:00;13.92;33.01
64833;HTU21D;51290;45.060;38.948;2023-02-26T04:30:26;13.90;33.03
64833;HTU21D;51290;45.060;38.948;2023-02-26T04:32:52;13.88;33.16
64833;HTU21D;51290;45.060;38.948;2023-02-26T04:35:19;13.88;33.40
64833;HTU21D;51290;45.060;38.948;2023-02-26T04:37:45;13.88;33.80
64833;HTU21D;51290;45.060;38.948;2023-02-26T04:40:11;13.85;33.89
64833;HTU21D;51290;45.060;38.948;2023-02-26T04:42:38;13.84;34.01
64833;HTU21D;51290;45.060;38.948;2023-02-26T04:45:05;13.85;34.11
64833;HTU21D;51290;45.060;38.948;2023-02-26T04:47:33;13.84;34.43
64833;HTU21D;51290;45.060;38.948;2023-02-26T04:49:59;13.82;34.60
64833;HTU21D;51290;45.060;38.948;2023-02-26T04:52:26;13.81;34.72
64833;HTU21D;51290;45.060;38.948;2023-02-26T04:54:52;13.80;34.87
64833;HTU21D;51290;45.060;38.948;2023-02-26T04:57:18;13.78;35.05
64833;HTU21D;51290;45.060;38.948;2023-02-26T04:59:44;13.81;35.18
64833;HTU21D;51290;45.060;38.948;2023-02-26T05:02:11;13.84;35.05
64833;HTU21D;51290;45.060;38.948;2023-02-26T05:04:40;13.90;34.73
64833;HTU21D;51290;45.060;38.948;2023-02-26T05:07:06;13.97;34.51
64833;HTU21D;51290;45.060;38.948;2023-02-26T05:09:32;14.06;33.72
64833;HTU21D;51290;45.060;38.948;2023-02-26T05:11:59;14.17;33.73
64833;HTU21D;51290;45.060;38.948;2023-02-26T05:14:25;14.27;33.50
64833;HTU21D;51290;45.060;38.948;2023-02-26T05:16:51;14.38;33.25
64833;HTU21D;51290;45.060;38.948;2023-02-26T05:19:17;14.49;33.18
64833;HTU21D;51290;45.060;38.948;2023-02-26T05:21:46;14.58;33.02
64833;HTU21D;51290;45.060;38.948;2023-02-26T05:24:15;14.68;33.07
64833;HTU21D;51290;45.060;38.948;2023-02-26T05:26:41;14.73;32.44
64833;HTU21D;51290;45.060;38.948;2023-02-26T05:29:07;14.81;32.42
64833;HTU21D;51290;45.060;38.948;2023-02-26T05:31:33;14.87;32.43
64833;HTU21D;51290;45.060;38.948;2023-02-26T05:33:59;14.93;32.31
64833;HTU21D;51290;45.060;38.948;2023-02-26T05:36:25;14.98;32.19
64833;HTU21D;51290;45.060;38.948;2023-02-26T05:38:51;15.04;32.06
64833;HTU21D;51290;45.060;38.948;2023-02-26T05:41:18;15.11;31.66
64833;HTU21D;51290;45.060;38.948;2023-02-26T05:43:44;15.19;31.59
64833;HTU21D;51290;45.060;38.948;2023-02-26T05:46:10;15.27;31.62
64833;HTU21D;51290;45.060;38.948;2023-02-26T05:48:36;15.34;31.79
64833;HTU21D;51290;45.060;38.948;2023-02-26T05:51:02;15.42;31.77
64833;HTU21D;51290;45.060;38.948;2023-02-26T05:53:28;15.48;31.83
64833;HTU21D;51290;45.060;38.948;2023-02-26T05:55:54;15.54;31.60
64833;HTU21D;51290;45.060;38.948;2023-02-26T05:58:21;15.59;31.77
64833;HTU21D;51290;45.060;38.948;2023-02-26T06:00:47;15.68;31.64
64833;HTU21D;51290;45.060;38.948;2023-02-26T06:03:13;15.72;31.64
64833;HTU21D;51290;45.060;38.948;2023-02-26T06:05:39;15.76;31.66
64833;HTU21D;51290;45.060;38.948;2023-02-26T06:08:05;15.82;31.31
64833;HTU21D;51290;45.060;38.948;2023-02-26T06:10:32;15.86;31.28
64833;HTU21D;51290;45.060;38.948;2023-02-26T06:12:58;15.90;31.17
64833;HTU21D;51290;45.060;38.948;2023-02-26T06:15:24;15.93;31.39
64833;HTU21D;51290;45.060;38.948;2023-02-26T06:17:53;15.98;31.40
64833;HTU21D;51290;45.060;38.948;2023-02-26T06:20:19;16.01;30.97
64833;HTU21D;51290;45.060;38.948;2023-02-26T06:22:45;16.04;30.78
64833;HTU21D;51290;45.060;38.948;2023-02-26T06:25:11;16.07;31.10
64833;HTU21D;51290;45.060;38.948;2023-02-26T06:27:37;16.13;30.87
64833;HTU21D;51290;45.060;38.948;2023-02-26T06:30:04;16.16;31.06
64833;HTU21D;51290;45.060;38.948;2023-02-26T06:32:30;16.20;30.84
64833;HTU21D;51290;45.060;38.948;2023-02-26T06:34:56;16.22;30.72
64833;HTU21D;51290;45.060;38.948;2023-02-26T06:37:22;16.26;30.56
64833;HTU21D;51290;45.060;38.948;2023-02-26T06:39:48;16.29;30.42
64833;HTU21D;51290;45.060;38.948;2023-02-26T06:42:14;16.30;30.65
64833;HTU21D;51290;45.060;38.948;2023-02-26T06:44:40;16.33;30.92
64833;HTU21D;51290;45.060;38.948;2023-02-26T06:47:07;16.35;31.06
64833;HTU21D;51290;45.060;38.948;2023-02-26T06:49:38;16.39;30.94
64833;HTU21D;51290;45.060;38.948;2023-02-26T06:52:04;16.44;30.94
64833;HTU21D;51290;45.060;38.948;2023-02-26T06:54:31;16.46;31.03
64833;HTU21D;51290;45.060;38.948;2023-02-26T06:56:57;16.50;30.65
64833;HTU21D;51290;45.060;38.948;2023-02-26T06:59:23;16.54;30.95
64833;HTU21D;51290;45.060;38.948;2023-02-26T07:01:49;16.60;30.77
64833;HTU21D;51290;45.060;38.948;2023-02-26T07:04:15;16.62;31.00
64833;HTU21D;51290;45.060;38.948;2023-02-26T07:06:41;16.67;30.84
64833;HTU21D;51290;45.060;38.948;2023-02-26T07:09:07;16.72;30.74
64833;HTU21D;51290;45.060;38.948;2023-02-26T07:11:33;16.74;30.67
64833;HTU21D;51290;45.060;38.948;2023-02-26T07:13:59;16.78;30.79
64833;HTU21D;51290;45.060;38.948;2023-02-26T07:16:26;16.81;30.92
64833;HTU21D;51290;45.060;38.948;2023-02-26T07:18:52;16.86;31.11
64833;HTU21D;51290;45.060;38.948;2023-02-26T07:21:17;16.91;31.09
64833;HTU21D;51290;45.060;38.948;2023-02-26T07:23:56;16.94;31.12
64833;HTU21D;51290;45.060;38.948;2023-02-26T07:26:22;17.01;30.88
64833;HTU21D;51290;45.060;38.948;2023-02-26T07:28:48;17.07;30.66
64833;HTU21D;51290;45.060;38.948;2023-02-26T07:31:13;17.13;30.60
64833;HTU21D;51290;45.060;38.948;2023-02-26T07:33:41;17.19;30.16
64833;HTU21D;51290;45.060;38.948;2023-02-26T07:36:06;17.23;30.10
64833;HTU21D;51290;45.060;38.948;2023-02-26T07:38:32;17.30;30.42
64833;HTU21D;51290;45.060;38.948;2023-02-26T07:40:58;17.34;30.42
64833;HTU21D;51290;45.060;38.948;2023-02-26T07:43:24;17.39;30.56
64833;HTU21D;51290;45.060;38.948;2023-02-26T07:45:50;17.43;30.19
64833;HTU21D;51290;45.060;38.948;2023-02-26T07:48:16;17.48;30.14
64833;HTU21D;51290;45.060;38.948;2023-02-26T07:50:42;17.53;29.80
64833;HTU21D;51290;45.060;38.948;2023-02-26T07:53:08;17.55;29.73
64833;HTU21D;51290;45.060;38.948;2023-02-26T07:55:34;17.59;29.85
64833;HTU21D;51290;45.060;38.948;2023-02-26T07:57:59;17.62;29.51
64833;HTU21D;51290;45.060;38.948;2023-02-26T08:00:25;17.65;29.78
64833;HTU21D;51290;45.060;38.948;2023-02-26T08:02:51;17.69;29.71
64833;HTU21D;51290;45.060;38.948;2023-02-26T08:05:17;17.74;29.74
64833;HTU21D;51290;45.060;38.948;2023-02-26T08:07:43;17.78;29.98
64833;HTU21D;51290;45.060;38.948;2023-02-26T08:10:09;17.82;29.90
64833;HTU21D;51290;45.060;38.948;2023-02-26T08:12:35;17.85;29.49
64833;HTU21D;51290;45.060;38.948;2023-02-26T08:15:01;17.88;29.61
64833;HTU21D;51290;45.060;38.948;2023-02-26T08:17:36;17.89;29.36
64833;HTU21D;51290;45.060;38.948;2023-02-26T08:20:02;17.92;29.74
64833;HTU21D;51290;45.060;38.948;2023-02-26T08:22:29;17.96;29.39
64833;HTU21D;51290;45.060;38.948;2023-02-26T08:24:55;18.02;29.22
64833;HTU21D;51290;45.060;38.948;2023-02-26T08:27:21;18.05;28.87
64833;HTU21D;51290;45.060;38.948;2023-02-26T08:29:46;18.08;29.03
64833;HTU21D;51290;45.060;38.948;2023-02-26T08:32:15;18.10;29.00
64833;HTU21D;51290;45.060;38.948;2023-02-26T08:34:41;18.13;28.82
64833;HTU21D;51290;45.060;38.948;2023-02-26T08:37:07;18.15;29.04
64833;HTU21D;51290;45.060;38.948;2023-02-26T08:39:36;18.20;28.94
64833;HTU21D;51290;45.060;38.948;2023-02-26T08:42:04;18.24;28.94
64833;HTU21D;51290;45.060;38.948;2023-02-26T08:44:30;18.30;29.17
64833;HTU21D;51290;45.060;38.948;2023-02-26T08:46:56;18.36;28.93
64833;HTU21D;51290;45.060;38.948;2023-02-26T08:49:22;18.41;29.16
64833;HTU21D;51290;45.060;38.948;2023-02-26T08:51:48;18.47;29.08
64833;HTU21D;51290;45.060;38.948;2023-02-26T08:54:14;18.50;28.92
64833;HTU21D;51290;45.060;38.948;2023-02-26T08:56:40;18.53;28.74
64833;HTU21D;51290;45.060;38.948;2023-02-26T08:59:06;18.55;28.80
64833;HTU21D;51290;45.060;38.948;2023-02-26T09:01:48;18.57;28.87
64833;HTU21D;51290;45.060;38.948;2023-02-26T09:04:14;18.61;28.68
64833;HTU21D;51290;45.060;38.948;2023-02-26T09:06:40;18.64;28.84
64833;HTU21D;51290;45.060;38.948;2023-02-26T09:09:06;18.67;28.42
64833;HTU21D;51290;45.060;38.948;2023-02-26T09:11:32;18.66;28.07
64833;HTU21D;51290;45.060;38.948;2023-02-26T09:13:58;18.65;28.13
64833;HTU21D;51290;45.060;38.948;2023-02-26T09:16:32;18.65;28.39
64833;HTU21D;51290;45.060;38.948;2023-02-26T09:19:03;18.67;28.50
64833;HTU21D;51290;45.060;38.948;2023-02-26T09:21:29;18.69;28.36
64833;HTU21D;51290;45.060;38.948;2023-02-26T09:23:55;18.70;28.48
64833;HTU21D;51290;45.060;38.948;2023-02-26T09:26:21;18.69;28.25
64833;HTU21D;51290;45.060;38.948;2023-02-26T09:28:47;18.69;28.28
64833;HTU21D;51290;45.060;38.948;2023-02-26T09:31:13;18.71;28.37
64833;HTU21D;51290;45.060;38.948;2023-02-26T09:33:39;18.71;28.35
64833;HTU21D;51290;45.060;38.948;2023-02-26T09:36:06;18.73;28.32
64833;HTU21D;51290;45.060;38.948;2023-02-26T09:38:32;18.77;28.25
64833;HTU21D;51290;45.060;38.948;2023-02-26T09:41:20;18.79;28.43
64833;HTU21D;51290;45.060;38.948;2023-02-26T09:44:14;18.82;28.81
64833;HTU21D;51290;45.060;38.948;2023-02-26T09:50:14;18.91;28.96
64833;HTU21D;51290;45.060;38.948;2023-02-26T09:52:26;18.96;29.06
64833;HTU21D;51290;45.060;38.948;2023-02-26T09:54:58;18.98;28.99
64833;HTU21D;51290;45.060;38.948;2023-02-26T09:57:29;18.97;28.98
64833;HTU21D;51290;45.060;38.948;2023-02-26T09:59:56;18.99;29.00
64833;HTU21D;51290;45.060;38.948;2023-02-26T10:02:48;19.00;29.23
64833;HTU21D;51290;45.060;38.948;2023-02-26T10:05:44;19.05;29.20
64833;HTU21D;51290;45.060;38.948;2023-02-26T10:08:17;19.09;29.03
64833;HTU21D;51290;45.060;38.948;2023-02-26T10:10:53;19.08;28.88
64833;HTU21D;51290;45.060;38.948;2023-02-26T10:13:42;19.07;28.75
64833;HTU21D;51290;45.060;38.948;2023-02-26T10:16:26;19.05;29.02
64833;HTU21D;51290;45.060;38.948;2023-02-26T10:18:58;19.07;29.22
64833;HTU21D;51290;45.060;38.948;2023-02-26T10:21:35;19.11;29.21
64833;HTU21D;51290;45.060;38.948;2023-02-26T10:24:25;19.16;29.55
64833;HTU21D;51290;45.060;38.948;2023-02-26T10:27:04;19.18;29.27
64833;HTU21D;51290;45.060;38.948;2023-02-26T10:30:10;19.17;29.00
64833;HTU21D;51290;45.060;38.948;2023-02-26T10:32:36;19.17;29.45
64833;HTU21D;51290;45.060;38.948;2023-02-26T10:35:17;19.21;29.58
64833;HTU21D;51290;45.060;38.948;2023-02-26T10:37:52;19.22;29.39
64833;HTU21D;51290;45.060;38.948;2023-02-26T10:40:49;19.21;29.64
64833;HTU21D;51290;45.060;38.948;2023-02-26T10:46:33;19.14;29.17
64833;HTU21D;51290;45.060;38.948;2023-02-26T10:51:47;19.01;29.43
64833;HTU21D;51290;45.060;38.948;2023-02-26T10:54:28;18.97;29.22
64833;HTU21D;51290;45.060;38.948;2023-02-26T10:56:56;18.95;29.40
64833;HTU21D;51290;45.060;38.948;2023-02-26T10:59:28;18.89;29.54
64833;HTU21D;51290;45.060;38.948;2023-02-26T11:01:55;18.86;29.63
64833;HTU21D;51290;45.060;38.948;2023-02-26T11:04:25;18.84;29.70
64833;HTU21D;51290;45.060;38.948;2023-02-26T11:07:07;18.81;29.79
64833;HTU21D;51290;45.060;38.948;2023-02-26T11:09:37;18.77;29.44
64833;HTU21D;51290;45.060;38.948;2023-02-26T11:12:13;18.70;29.30
64833;HTU21D;51290;45.060;38.948;2023-02-26T11:14:47;18.69;29.57
64833;HTU21D;51290;45.060;38.948;2023-02-26T11:17:18;18.68;29.85
64833;HTU21D;51290;45.060;38.948;2023-02-26T11:19:56;18.67;29.65
64833;HTU21D;51290;45.060;38.948;2023-02-26T11:22:28;18.64;29.90
64833;HTU21D;51290;45.060;38.948;2023-02-26T11:24:55;18.62;29.95
64833;HTU21D;51290;45.060;38.948;2023-02-26T11:27:30;18.59;30.04
64833;HTU21D;51290;45.060;38.948;2023-02-26T11:29:58;18.55;29.87
64833;HTU21D;51290;45.060;38.948;2023-02-26T11:32:33;18.51;29.90
64833;HTU21D;51290;45.060;38.948;2023-02-26T11:35:00;18.44;30.16
64833;HTU21D;51290;45.060;38.948;2023-02-26T11:37:30;18.41;30.25
64833;HTU21D;51290;45.060;38.948;2023-02-26T11:40:02;18.40;30.23
64833;HTU21D;51290;45.060;38.948;2023-02-26T11:42:34;18.39;30.54
64833;HTU21D;51290;45.060;38.948;2023-02-26T11:45:04;18.37;30.25
64833;HTU21D;51290;45.060;38.948;2023-02-26T11:47:33;18.32;30.31
64833;HTU21D;51290;45.060;38.948;2023-02-26T11:50:18;18.30;30.43
64833;HTU21D;51290;45.060;38.948;2023-02-26T11:52:54;18.30;30.64
64833;HTU21D;51290;45.060;38.948;2023-02-26T11:55:27;18.28;30.54
64833;HTU21D;51290;45.060;38.948;2023-02-26T11:57:54;18.29;30.66
64833;HTU21D;51290;45.060;38.948;2023-02-26T12:00:31;18.27;30.61
64833;HTU21D;51290;45.060;38.948;2023-02-26T12:03:02;18.26;30.54
64833;HTU21D;51290;45.060;38.948;2023-02-26T12:05:30;18.21;30.74
64833;HTU21D;51290;45.060;38.948;2023-02-26T12:07:57;18.19;30.84
64833;HTU21D;51290;45.060;38.948;2023-02-26T12:13:35;18.07;30.99
64833;HTU21D;51290;45.060;38.948;2023-02-26T12:16:11;18.02;31.17
64833;HTU21D;51290;45.060;38.948;2023-02-26T12:21:50;17.93;31.26
64833;HTU21D;51290;45.060;38.948;2023-02-26T12:24:37;17.88;31.46
64833;HTU21D;51290;45.060;38.948;2023-02-26T12:27:23;17.88;31.65
64833;HTU21D;51290;45.060;38.948;2023-02-26T12:33:07;17.81;31.73
64833;HTU21D;51290;45.060;38.948;2023-02-26T12:35:36;17.77;31.83
64833;HTU21D;51290;45.060;38.948;2023-02-26T12:43:42;17.65;32.20
64833;HTU21D;51290;45.060;38.948;2023-02-26T12:55:13;17.51;32.67
64833;HTU21D;51290;45.060;38.948;2023-02-26T13:03:14;17.41;33.01
64833;HTU21D;51290;45.060;38.948;2023-02-26T13:08:56;17.35;33.12
64833;HTU21D;51290;45.060;38.948;2023-02-26T13:17:07;17.30;33.42
64833;HTU21D;51290;45.060;38.948;2023-02-26T13:19:41;17.28;33.44
64833;HTU21D;51290;45.060;38.948;2023-02-26T13:22:26;17.28;33.48
64833;HTU21D;51290;45.060;38.948;2023-02-26T13:25:30;17.25;33.56
64833;HTU21D;51290;45.060;38.948;2023-02-26T13:27:52;17.25;33.76
64833;HTU21D;51290;45.060;38.948;2023-02-26T13:30:35;17.23;33.74
64833;HTU21D;51290;45.060;38.948;2023-02-26T13:33:03;17.21;33.73
64833;HTU21D;51290;45.060;38.948;2023-02-26T13:35:40;17.18;33.79
64833;HTU21D;51290;45.060;38.948;2023-02-26T13:49:37;16.99;34.22
64833;HTU21D;51290;45.060;38.948;2023-02-26T13:52:26;16.92;34.32
64833;HTU21D;51290;45.060;38.948;2023-02-26T13:54:52;16.86;34.44
64833;HTU21D;51290;45.060;38.948;2023-02-26T13:57:51;16.78;34.56
64833;HTU21D;51290;45.060;38.948;2023-02-26T14:00:32;16.70;34.72
64833;HTU21D;51290;45.060;38.948;2023-02-26T14:08:45;16.50;35.05
64833;HTU21D;51290;45.060;38.948;2023-02-26T14:11:37;16.44;35.15
64833;HTU21D;51290;45.060;38.948;2023-02-26T14:16:43;16.30;35.34
64833;HTU21D;51290;45.060;38.948;2023-02-26T14:21:48;16.19;35.47
64833;HTU21D;51290;45.060;38.948;2023-02-26T14:24:16;16.15;35.47
64833;HTU21D;51290;45.060;38.948;2023-02-26T14:27:48;16.08;35.60
64833;HTU21D;51290;45.060;38.948;2023-02-26T14:35:04;15.86;35.85
64833;HTU21D;51290;45.060;38.948;2023-02-26T14:37:32;15.80;35.95
64833;HTU21D;51290;45.060;38.948;2023-02-26T14:40:18;15.71;36.08
64833;HTU21D;51290;45.060;38.948;2023-02-26T14:45:26;15.56;36.31
64833;HTU21D;51290;45.060;38.948;2023-02-26T14:47:53;15.48;36.42
64833;HTU21D;51290;45.060;38.948;2023-02-26T14:50:21;15.40;36.53
64833;HTU21D;51290;45.060;38.948;2023-02-26T14:58:11;15.18;36.93
64833;HTU21D;51290;45.060;38.948;2023-02-26T15:03:44;15.10;37.12
64833;HTU21D;51290;45.060;38.948;2023-02-26T15:25:22;14.63;37.83
64833;HTU21D;51290;45.060;38.948;2023-02-26T15:27:50;14.57;37.92
64833;HTU21D;51290;45.060;38.948;2023-02-26T15:30:16;14.53;37.98
64833;HTU21D;51290;45.060;38.948;2023-02-26T15:32:56;14.47;38.04
64833;HTU21D;51290;45.060;38.948;2023-02-26T15:35:23;14.41;38.14
64833;HTU21D;51290;45.060;38.948;2023-02-26T15:37:52;14.35;38.21
64833;HTU21D;51290;45.060;38.948;2023-02-26T15:40:19;14.33;38.27
64833;HTU21D;51290;45.060;38.948;2023-02-26T15:42:48;14.29;38.33
64833;HTU21D;51290;45.060;38.948;2023-02-26T15:47:53;14.27;38.43
64833;HTU21D;51290;45.060;38.948;2023-02-26T15:50:24;14.27;38.46
64833;HTU21D;51290;45.060;38.948;2023-02-26T15:53:25;14.27;38.49
64833;HTU21D;51290;45.060;38.948;2023-02-26T15:55:53;14.25;38.53
64833;HTU21D;51290;45.060;38.948;2023-02-26T15:58:45;14.23;38.59
64833;HTU21D;51290;45.060;38.948;2023-02-26T16:01:20;14.21;38.62
64833;HTU21D;51290;45.060;38.948;2023-02-26T16:03:48;14.18;38.68
64833;HTU21D;51290;45.060;38.948;2023-02-26T16:06:39;14.17;38.69
64833;HTU21D;51290;45.060;38.948;2023-02-26T16:09:05;14.15;38.73
64833;HTU21D;51290;45.060;38.948;2023-02-26T16:11:36;14.13;38.78
64833;HTU21D;51290;45.060;38.948;2023-02-26T16:14:04;14.11;38.82
64833;HTU21D;51290;45.060;38.948;2023-02-26T16:16:51;14.11;38.88
64833;HTU21D;51290;45.060;38.948;2023-02-26T16:19:23;14.09;38.89
64833;HTU21D;51290;45.060;38.948;2023-02-26T16:21:53;14.05;38.94
64833;HTU21D;51290;45.060;38.948;2023-02-26T16:24:20;14.00;39.01
64833;HTU21D;51290;45.060;38.948;2023-02-26T16:26:56;13.97;39.08
64833;HTU21D;51290;45.060;38.948;2023-02-26T16:29:26;13.95;39.16
64833;HTU21D;51290;45.060;38.948;2023-02-26T16:31:56;13.94;39.23
64833;HTU21D;51290;45.060;38.948;2023-02-26T16:34:42;13.93;39.25
64833;HTU21D;51290;45.060;38.948;2023-02-26T16:39:44;13.89;39.35
64833;HTU21D;51290;45.060;38.948;2023-02-26T16:42:30;13.85;39.42
64833;HTU21D;51290;45.060;38.948;2023-02-26T16:47:48;13.81;39.46
64833;HTU21D;51290;45.060;38.948;2023-02-26T16:50:25;13.78;39.52
64833;HTU21D;51290;45.060;38.948;2023-02-26T16:53:10;13.74;39.60
64833;HTU21D;51290;45.060;38.948;2023-02-26T16:55:38;13.71;39.61
64833;HTU21D;51290;45.060;38.948;2023-02-26T16:58:07;13.67;39.62
64833;HTU21D;51290;45.060;38.948;2023-02-26T17:00:37;13.61;39.68
64833;HTU21D;51290;45.060;38.948;2023-02-26T17:03:18;13.56;39.78
64833;HTU21D;51290;45.060;38.948;2023-02-26T17:06:07;13.54;39.81
64833;HTU21D;51290;45.060;38.948;2023-02-26T17:08:43;13.50;39.85
64833;HTU21D;51290;45.060;38.948;2023-02-26T17:16:40;13.36;40.01
64833;HTU21D;51290;45.060;38.948;2023-02-26T17:19:06;13.27;40.05
64833;HTU21D;51290;45.060;38.948;2023-02-26T17:21:41;13.21;40.10
64833;HTU21D;51290;45.060;38.948;2023-02-26T17:24:16;13.10;40.17
64833;HTU21D;51290;45.060;38.948;2023-02-26T17:26:44;13.00;40.24
64833;HTU21D;51290;45.060;38.948;2023-02-26T17:31:56;12.75;40.42
64833;HTU21D;51290;45.060;38.948;2023-02-26T17:34:23;12.64;40.55
64833;HTU21D;51290;45.060;38.948;2023-02-26T17:36:49;12.56;40.69
64833;HTU21D;51290;45.060;38.948;2023-02-26T17:39:23;12.50;40.81
64833;HTU21D;51290;45.060;38.948;2023-02-26T17:41:49;12.48;40.88
64833;HTU21D;51290;45.060;38.948;2023-02-26T17:44:15;12.47;40.95
64833;HTU21D;51290;45.060;38.948;2023-02-26T17:46:41;12.47;40.96
64833;HTU21D;51290;45.060;38.948;2023-02-26T17:49:10;12.46;40.95
64833;HTU21D;51290;45.060;38.948;2023-02-26T17:51:37;12.45;41.00
64833;HTU21D;51290;45.060;38.948;2023-02-26T17:54:28;12.42;41.02
64833;HTU21D;51290;45.060;38.948;2023-02-26T17:56:55;12.38;41.03
64833;HTU21D;51290;45.060;38.948;2023-02-26T17:59:21;12.33;41.07
64833;HTU21D;51290;45.060;38.948;2023-02-26T18:01:47;12.29;41.13
64833;HTU21D;51290;45.060;38.948;2023-02-26T18:04:13;12.25;41.16
64833;HTU21D;51290;45.060;38.948;2023-02-26T18:06:41;12.20;41.21
64833;HTU21D;51290;45.060;38.948;2023-02-26T18:09:10;12.16;41.29
64833;HTU21D;51290;45.060;38.948;2023-02-26T18:11:36;12.12;41.34
64833;HTU21D;51290;45.060;38.948;2023-02-26T18:14:03;12.07;41.40
64833;HTU21D;51290;45.060;38.948;2023-02-26T18:16:39;12.03;41.40
64833;HTU21D;51290;45.060;38.948;2023-02-26T18:19:06;11.99;41.45
64833;HTU21D;51290;45.060;38.948;2023-02-26T18:21:32;11.93;41.53